sensor_id;sensor_type;location;lat;lon;timestamp;P1;durP1;ratioP1;P2;durP2;ratioP2
35324;SDS011;35135;47.510;19.036;2023-12-07T00:01:03;4.50;;;3.20;;
35324;SDS011;35135;47.510;19.036;2023-12-07T00:03:29;4.82;;;2.88;;
35324;SDS011;35135;47.510;19.036;2023-12-07T00:05:55;4.85;;;3.08;;
35324;SDS011;35135;47.510;19.036;2023-12-07T00:08:20;4.47;;;2.83;;
35324;SDS011;35135;47.510;19.036;2023-12-07T00:10:46;4.63;;;3.10;;
35324;SDS011;35135;47.510;19.036;2023-12-07T00:13:11;3.67;;;3.00;;
35324;SDS011;35135;47.510;19.036;2023-12-07T00:15:37;4.38;;;2.72;;
35324;SDS011;35135;47.510;19.036;2023-12-07T00:18:03;3.92;;;2.83;;
35324;SDS011;35135;47.510;19.036;2023-12-07T00:20:29;4.43;;;2.80;;
35324;SDS011;35135;47.510;19.036;2023-12-07T00:22:55;4.60;;;3.22;;
35324;SDS011;35135;47.510;19.036;2023-12-07T00:25:21;4.40;;;2.30;;
35324;SDS011;35135;47.510;19.036;2023-12-07T00:27:47;3.35;;;2.60;;
35324;SDS011;35135;47.510;19.036;2023-12-07T00:30:13;3.80;;;2.70;;
35324;SDS011;35135;47.510;19.036;2023-12-07T00:32:39;3.28;;;2.72;;
35324;SDS011;35135;47.510;19.036;2023-12-07T00:35:08;2.85;;;2.22;;
35324;SDS011;35135;47.510;19.036;2023-12-07T00:37:35;3.28;;;2.30;;
35324;SDS011;35135;47.510;19.036;2023-12-07T00:40:00;4.85;;;2.65;;
35324;SDS011;35135;47.510;19.036;2023-12-07T00:42:27;4.47;;;2.50;;
35324;SDS011;35135;47.510;19.036;2023-12-07T00:44:53;3.63;;;2.40;;
35324;SDS011;35135;47.510;19.036;2023-12-07T00:47:18;3.10;;;2.28;;
35324;SDS011;35135;47.510;19.036;2023-12-07T00:49:44;2.78;;;2.25;;
35324;SDS011;35135;47.510;19.036;2023-12-07T00:52:10;2.58;;;2.33;;
35324;SDS011;35135;47.510;19.036;2023-12-07T00:54:36;3.00;;;2.42;;
35324;SDS011;35135;47.510;19.036;2023-12-07T00:57:02;2.60;;;2.10;;
35324;SDS011;35135;47.510;19.036;2023-12-07T00:59:27;7.57;;;2.20;;
35324;SDS011;35135;47.510;19.036;2023-12-07T01:01:59;3.10;;;2.33;;
35324;SDS011;35135;47.510;19.036;2023-12-07T01:04:26;3.40;;;2.08;;
35324;SDS011;35135;47.510;19.036;2023-12-07T01:06:52;2.05;;;1.83;;
35324;SDS011;35135;47.510;19.036;2023-12-07T01:09:18;2.53;;;2.17;;
35324;SDS011;35135;47.510;19.036;2023-12-07T01:11:44;2.35;;;1.98;;
35324;SDS011;35135;47.510;19.036;2023-12-07T01:14:10;2.45;;;2.22;;
35324;SDS011;35135;47.510;19.036;2023-12-07T01:16:36;2.28;;;2.08;;
35324;SDS011;35135;47.510;19.036;2023-12-07T01:19:02;3.22;;;2.20;;
35324;SDS011;35135;47.510;19.036;2023-12-07T01:21:28;2.45;;;2.00;;
35324;SDS011;35135;47.510;19.036;2023-12-07T01:23:54;3.22;;;2.17;;
35324;SDS011;35135;47.510;19.036;2023-12-07T01:26:20;2.10;;;1.90;;
35324;SDS011;35135;47.510;19.036;2023-12-07T01:28:46;2.35;;;1.90;;
35324;SDS011;35135;47.510;19.036;2023-12-07T01:31:11;2.03;;;1.58;;
35324;SDS011;35135;47.510;19.036;2023-12-07T01:33:37;2.40;;;1.80;;
35324;SDS011;35135;47.510;19.036;2023-12-07T01:36:03;2.35;;;1.83;;
35324;SDS011;35135;47.510;19.036;2023-12-07T01:38:28;2.38;;;1.85;;
35324;SDS011;35135;47.510;19.036;2023-12-07T01:40:54;2.50;;;2.03;;
35324;SDS011;35135;47.510;19.036;2023-12-07T01:43:21;2.97;;;1.75;;
35324;SDS011;35135;47.510;19.036;2023-12-07T01:45:48;3.55;;;1.90;;
35324;SDS011;35135;47.510;19.036;2023-12-07T01:48:16;3.08;;;1.85;;
35324;SDS011;35135;47.510;19.036;2023-12-07T01:50:42;2.75;;;1.80;;
35324;SDS011;35135;47.510;19.036;2023-12-07T01:53:08;2.00;;;1.70;;
35324;SDS011;35135;47.510;19.036;2023-12-07T01:55:34;3.50;;;1.70;;
35324;SDS011;35135;47.510;19.036;2023-12-07T01:58:01;1.65;;;1.55;;
35324;SDS011;35135;47.510;19.036;2023-12-07T02:00:27;1.85;;;1.60;;
35324;SDS011;35135;47.510;19.036;2023-12-07T02:02:53;2.25;;;1.95;;
35324;SDS011;35135;47.510;19.036;2023-12-07T02:05:20;2.20;;;1.73;;
35324;SDS011;35135;47.510;19.036;2023-12-07T02:07:46;1.90;;;1.70;;
35324;SDS011;35135;47.510;19.036;2023-12-07T02:10:12;2.58;;;2.10;;
35324;SDS011;35135;47.510;19.036;2023-12-07T02:12:38;2.10;;;1.90;;
35324;SDS011;35135;47.510;19.036;2023-12-07T02:15:05;2.22;;;1.88;;
35324;SDS011;35135;47.510;19.036;2023-12-07T02:17:38;2.17;;;1.92;;
35324;SDS011;35135;47.510;19.036;2023-12-07T02:20:21;2.65;;;1.92;;
35324;SDS011;35135;47.510;19.036;2023-12-07T02:22:54;2.15;;;1.95;;
35324;SDS011;35135;47.510;19.036;2023-12-07T02:25:26;2.08;;;1.60;;
35324;SDS011;35135;47.510;19.036;2023-12-07T02:28:13;1.73;;;1.50;;
35324;SDS011;35135;47.510;19.036;2023-12-07T02:30:39;2.00;;;1.60;;
35324;SDS011;35135;47.510;19.036;2023-12-07T02:33:05;5.75;;;1.67;;
35324;SDS011;35135;47.510;19.036;2023-12-07T02:35:31;1.65;;;1.55;;
35324;SDS011;35135;47.510;19.036;2023-12-07T02:37:57;2.20;;;1.67;;
35324;SDS011;35135;47.510;19.036;2023-12-07T02:40:24;2.20;;;1.88;;
35324;SDS011;35135;47.510;19.036;2023-12-07T02:42:55;2.45;;;1.70;;
35324;SDS011;35135;47.510;19.036;2023-12-07T02:45:22;1.75;;;1.35;;
35324;SDS011;35135;47.510;19.036;2023-12-07T02:47:48;2.42;;;1.90;;
35324;SDS011;35135;47.510;19.036;2023-12-07T02:50:13;1.95;;;1.52;;
35324;SDS011;35135;47.510;19.036;2023-12-07T02:52:39;2.55;;;1.52;;
35324;SDS011;35135;47.510;19.036;2023-12-07T02:55:05;1.83;;;1.42;;
35324;SDS011;35135;47.510;19.036;2023-12-07T02:57:32;1.63;;;1.40;;
35324;SDS011;35135;47.510;19.036;2023-12-07T03:00:02;1.48;;;1.38;;
35324;SDS011;35135;47.510;19.036;2023-12-07T03:02:32;1.33;;;1.23;;
35324;SDS011;35135;47.510;19.036;2023-12-07T03:05:02;1.42;;;1.33;;
35324;SDS011;35135;47.510;19.036;2023-12-07T03:07:29;2.05;;;1.30;;
35324;SDS011;35135;47.510;19.036;2023-12-07T03:09:55;1.65;;;1.35;;
35324;SDS011;35135;47.510;19.036;2023-12-07T03:12:21;2.70;;;1.40;;
35324;SDS011;35135;47.510;19.036;2023-12-07T03:14:48;1.67;;;1.20;;
35324;SDS011;35135;47.510;19.036;2023-12-07T03:17:14;1.80;;;1.30;;
35324;SDS011;35135;47.510;19.036;2023-12-07T03:19:39;1.50;;;1.33;;
35324;SDS011;35135;47.510;19.036;2023-12-07T03:22:06;2.13;;;1.13;;
35324;SDS011;35135;47.510;19.036;2023-12-07T03:24:35;1.55;;;1.42;;
35324;SDS011;35135;47.510;19.036;2023-12-07T03:27:01;1.30;;;1.02;;
35324;SDS011;35135;47.510;19.036;2023-12-07T03:29:28;1.85;;;1.35;;
35324;SDS011;35135;47.510;19.036;2023-12-07T03:31:53;1.63;;;1.20;;
35324;SDS011;35135;47.510;19.036;2023-12-07T03:34:19;1.25;;;1.10;;
35324;SDS011;35135;47.510;19.036;2023-12-07T03:36:45;1.75;;;1.20;;
35324;SDS011;35135;47.510;19.036;2023-12-07T03:39:13;1.30;;;1.10;;
35324;SDS011;35135;47.510;19.036;2023-12-07T03:41:39;1.40;;;1.10;;
35324;SDS011;35135;47.510;19.036;2023-12-07T03:44:05;1.50;;;1.30;;
35324;SDS011;35135;47.510;19.036;2023-12-07T03:46:31;1.58;;;1.10;;
35324;SDS011;35135;47.510;19.036;2023-12-07T03:48:56;1.30;;;1.00;;
35324;SDS011;35135;47.510;19.036;2023-12-07T03:51:22;2.33;;;1.23;;
35324;SDS011;35135;47.510;19.036;2023-12-07T03:53:47;1.55;;;1.10;;
35324;SDS011;35135;47.510;19.036;2023-12-07T03:56:26;1.38;;;1.20;;
35324;SDS011;35135;47.510;19.036;2023-12-07T03:58:53;1.25;;;0.98;;
35324;SDS011;35135;47.510;19.036;2023-12-07T04:01:23;1.40;;;1.00;;
35324;SDS011;35135;47.510;19.036;2023-12-07T04:03:53;1.30;;;1.15;;
35324;SDS011;35135;47.510;19.036;2023-12-07T04:06:19;1.30;;;1.20;;
35324;SDS011;35135;47.510;19.036;2023-12-07T04:08:46;1.30;;;1.00;;
35324;SDS011;35135;47.510;19.036;2023-12-07T04:11:12;2.47;;;1.10;;
35324;SDS011;35135;47.510;19.036;2023-12-07T04:13:38;1.20;;;1.10;;
35324;SDS011;35135;47.510;19.036;2023-12-07T04:16:05;1.50;;;0.98;;
35324;SDS011;35135;47.510;19.036;2023-12-07T04:18:31;2.75;;;1.23;;
35324;SDS011;35135;47.510;19.036;2023-12-07T04:20:57;1.55;;;1.20;;
35324;SDS011;35135;47.510;19.036;2023-12-07T04:23:22;1.30;;;1.10;;
35324;SDS011;35135;47.510;19.036;2023-12-07T04:25:48;1.27;;;1.13;;
35324;SDS011;35135;47.510;19.036;2023-12-07T04:28:14;1.10;;;0.88;;
35324;SDS011;35135;47.510;19.036;2023-12-07T04:30:40;1.00;;;0.88;;
35324;SDS011;35135;47.510;19.036;2023-12-07T04:33:05;1.20;;;1.10;;
35324;SDS011;35135;47.510;19.036;2023-12-07T04:35:31;1.20;;;1.05;;
35324;SDS011;35135;47.510;19.036;2023-12-07T04:37:57;1.20;;;0.93;;
35324;SDS011;35135;47.510;19.036;2023-12-07T04:40:24;1.10;;;0.93;;
35324;SDS011;35135;47.510;19.036;2023-12-07T04:42:50;1.70;;;0.98;;
35324;SDS011;35135;47.510;19.036;2023-12-07T04:45:17;1.48;;;0.90;;
35324;SDS011;35135;47.510;19.036;2023-12-07T04:47:43;1.48;;;1.10;;
35324;SDS011;35135;47.510;19.036;2023-12-07T04:50:09;1.02;;;0.88;;
35324;SDS011;35135;47.510;19.036;2023-12-07T04:52:35;1.10;;;0.90;;
35324;SDS011;35135;47.510;19.036;2023-12-07T04:55:01;1.15;;;0.95;;
35324;SDS011;35135;47.510;19.036;2023-12-07T04:57:27;1.85;;;0.80;;
35324;SDS011;35135;47.510;19.036;2023-12-07T04:59:52;1.02;;;0.80;;
35324;SDS011;35135;47.510;19.036;2023-12-07T05:02:18;1.25;;;1.00;;
35324;SDS011;35135;47.510;19.036;2023-12-07T05:04:44;0.60;;;0.60;;
35324;SDS011;35135;47.510;19.036;2023-12-07T05:07:13;0.70;;;0.70;;
35324;SDS011;35135;47.510;19.036;2023-12-07T05:09:39;0.90;;;0.70;;
35324;SDS011;35135;47.510;19.036;2023-12-07T05:12:08;1.10;;;0.70;;
35324;SDS011;35135;47.510;19.036;2023-12-07T05:14:34;1.25;;;0.98;;
35324;SDS011;35135;47.510;19.036;2023-12-07T05:17:02;0.73;;;0.68;;
35324;SDS011;35135;47.510;19.036;2023-12-07T05:19:28;6.47;;;0.90;;
35324;SDS011;35135;47.510;19.036;2023-12-07T05:21:54;1.13;;;0.93;;
35324;SDS011;35135;47.510;19.036;2023-12-07T05:24:20;1.35;;;0.90;;
35324;SDS011;35135;47.510;19.036;2023-12-07T05:26:45;1.00;;;0.80;;
35324;SDS011;35135;47.510;19.036;2023-12-07T05:29:11;0.77;;;0.77;;
35324;SDS011;35135;47.510;19.036;2023-12-07T05:31:38;0.80;;;0.75;;
35324;SDS011;35135;47.510;19.036;2023-12-07T05:34:04;0.98;;;0.70;;
35324;SDS011;35135;47.510;19.036;2023-12-07T05:36:30;1.10;;;0.80;;
35324;SDS011;35135;47.510;19.036;2023-12-07T05:38:56;0.80;;;0.73;;
35324;SDS011;35135;47.510;19.036;2023-12-07T05:41:21;0.93;;;0.70;;
35324;SDS011;35135;47.510;19.036;2023-12-07T05:43:47;0.88;;;0.77;;
35324;SDS011;35135;47.510;19.036;2023-12-07T05:46:14;0.88;;;0.60;;
35324;SDS011;35135;47.510;19.036;2023-12-07T05:48:40;1.00;;;0.68;;
35324;SDS011;35135;47.510;19.036;2023-12-07T05:51:11;0.68;;;0.60;;
35324;SDS011;35135;47.510;19.036;2023-12-07T05:53:41;1.00;;;0.75;;
35324;SDS011;35135;47.510;19.036;2023-12-07T05:56:07;0.70;;;0.50;;
35324;SDS011;35135;47.510;19.036;2023-12-07T05:58:34;0.95;;;0.70;;
35324;SDS011;35135;47.510;19.036;2023-12-07T06:01:00;1.00;;;0.60;;
35324;SDS011;35135;47.510;19.036;2023-12-07T06:03:27;0.98;;;0.60;;
35324;SDS011;35135;47.510;19.036;2023-12-07T06:05:55;1.00;;;0.70;;
35324;SDS011;35135;47.510;19.036;2023-12-07T06:08:27;0.82;;;0.70;;
35324;SDS011;35135;47.510;19.036;2023-12-07T06:10:53;1.92;;;0.80;;
35324;SDS011;35135;47.510;19.036;2023-12-07T06:13:19;2.58;;;0.80;;
35324;SDS011;35135;47.510;19.036;2023-12-07T06:15:45;0.80;;;0.60;;
35324;SDS011;35135;47.510;19.036;2023-12-07T06:18:10;1.25;;;0.70;;
35324;SDS011;35135;47.510;19.036;2023-12-07T06:20:36;5.05;;;1.10;;
35324;SDS011;35135;47.510;19.036;2023-12-07T06:23:01;2.60;;;1.17;;
35324;SDS011;35135;47.510;19.036;2023-12-07T06:25:27;5.55;;;0.95;;
35324;SDS011;35135;47.510;19.036;2023-12-07T06:27:54;4.53;;;1.00;;
35324;SDS011;35135;47.510;19.036;2023-12-07T06:30:21;5.85;;;1.08;;
35324;SDS011;35135;47.510;19.036;2023-12-07T06:32:47;1.70;;;1.10;;
35324;SDS011;35135;47.510;19.036;2023-12-07T06:35:12;5.20;;;1.13;;
35324;SDS011;35135;47.510;19.036;2023-12-07T06:37:38;11.40;;;2.08;;
35324;SDS011;35135;47.510;19.036;2023-12-07T06:40:06;4.95;;;0.98;;
35324;SDS011;35135;47.510;19.036;2023-12-07T06:42:34;5.68;;;1.08;;
35324;SDS011;35135;47.510;19.036;2023-12-07T06:45:01;4.38;;;1.17;;
35324;SDS011;35135;47.510;19.036;2023-12-07T06:47:27;11.20;;;1.38;;
35324;SDS011;35135;47.510;19.036;2023-12-07T06:49:53;7.40;;;1.20;;
35324;SDS011;35135;47.510;19.036;2023-12-07T06:52:30;6.03;;;1.55;;
35324;SDS011;35135;47.510;19.036;2023-12-07T06:54:55;5.80;;;1.40;;
35324;SDS011;35135;47.510;19.036;2023-12-07T06:57:21;4.72;;;1.27;;
35324;SDS011;35135;47.510;19.036;2023-12-07T06:59:47;4.22;;;1.15;;
35324;SDS011;35135;47.510;19.036;2023-12-07T07:02:12;3.03;;;1.13;;
35324;SDS011;35135;47.510;19.036;2023-12-07T07:04:38;3.15;;;1.08;;
35324;SDS011;35135;47.510;19.036;2023-12-07T07:07:04;4.47;;;1.38;;
35324;SDS011;35135;47.510;19.036;2023-12-07T07:09:29;4.43;;;1.40;;
35324;SDS011;35135;47.510;19.036;2023-12-07T07:11:55;6.00;;;1.33;;
35324;SDS011;35135;47.510;19.036;2023-12-07T07:14:21;4.38;;;1.30;;
35324;SDS011;35135;47.510;19.036;2023-12-07T07:16:46;4.53;;;1.25;;
35324;SDS011;35135;47.510;19.036;2023-12-07T07:19:13;5.40;;;1.38;;
35324;SDS011;35135;47.510;19.036;2023-12-07T07:21:39;3.83;;;1.20;;
35324;SDS011;35135;47.510;19.036;2023-12-07T07:24:04;4.10;;;1.08;;
35324;SDS011;35135;47.510;19.036;2023-12-07T07:26:31;6.22;;;1.42;;
35324;SDS011;35135;47.510;19.036;2023-12-07T07:28:57;2.75;;;0.98;;
35324;SDS011;35135;47.510;19.036;2023-12-07T07:31:22;4.00;;;1.40;;
35324;SDS011;35135;47.510;19.036;2023-12-07T07:33:48;2.67;;;1.00;;
35324;SDS011;35135;47.510;19.036;2023-12-07T07:36:14;7.25;;;1.52;;
35324;SDS011;35135;47.510;19.036;2023-12-07T07:38:40;6.43;;;1.50;;
35324;SDS011;35135;47.510;19.036;2023-12-07T07:41:07;3.80;;;1.23;;
35324;SDS011;35135;47.510;19.036;2023-12-07T07:43:32;2.78;;;1.08;;
35324;SDS011;35135;47.510;19.036;2023-12-07T07:46:01;5.90;;;1.48;;
35324;SDS011;35135;47.510;19.036;2023-12-07T07:48:28;3.08;;;1.45;;
35324;SDS011;35135;47.510;19.036;2023-12-07T07:50:55;2.20;;;1.20;;
35324;SDS011;35135;47.510;19.036;2023-12-07T07:53:20;3.47;;;1.00;;
35324;SDS011;35135;47.510;19.036;2023-12-07T07:55:46;2.95;;;0.90;;
35324;SDS011;35135;47.510;19.036;2023-12-07T07:58:12;3.83;;;1.20;;
35324;SDS011;35135;47.510;19.036;2023-12-07T08:00:37;2.40;;;1.10;;
35324;SDS011;35135;47.510;19.036;2023-12-07T08:03:03;3.33;;;1.25;;
35324;SDS011;35135;47.510;19.036;2023-12-07T08:05:29;4.65;;;1.20;;
35324;SDS011;35135;47.510;19.036;2023-12-07T08:07:54;3.17;;;1.30;;
35324;SDS011;35135;47.510;19.036;2023-12-07T08:10:20;2.38;;;1.13;;
35324;SDS011;35135;47.510;19.036;2023-12-07T08:12:46;3.20;;;1.08;;
35324;SDS011;35135;47.510;19.036;2023-12-07T08:15:11;3.05;;;1.25;;
35324;SDS011;35135;47.510;19.036;2023-12-07T08:17:40;1.67;;;1.00;;
35324;SDS011;35135;47.510;19.036;2023-12-07T08:20:09;2.92;;;1.55;;
35324;SDS011;35135;47.510;19.036;2023-12-07T08:22:36;1.80;;;1.27;;
35324;SDS011;35135;47.510;19.036;2023-12-07T08:25:02;2.65;;;1.20;;
35324;SDS011;35135;47.510;19.036;2023-12-07T08:27:30;2.13;;;1.10;;
35324;SDS011;35135;47.510;19.036;2023-12-07T08:29:58;2.45;;;1.40;;
35324;SDS011;35135;47.510;19.036;2023-12-07T08:32:24;1.33;;;0.98;;
35324;SDS011;35135;47.510;19.036;2023-12-07T08:34:51;2.78;;;1.20;;
35324;SDS011;35135;47.510;19.036;2023-12-07T08:37:17;4.43;;;1.85;;
35324;SDS011;35135;47.510;19.036;2023-12-07T08:39:43;3.28;;;1.20;;
35324;SDS011;35135;47.510;19.036;2023-12-07T08:42:09;3.05;;;1.42;;
35324;SDS011;35135;47.510;19.036;2023-12-07T08:44:35;2.13;;;1.00;;
35324;SDS011;35135;47.510;19.036;2023-12-07T08:47:01;2.78;;;1.40;;
35324;SDS011;35135;47.510;19.036;2023-12-07T08:49:27;1.55;;;1.23;;
35324;SDS011;35135;47.510;19.036;2023-12-07T08:51:53;2.22;;;1.50;;
35324;SDS011;35135;47.510;19.036;2023-12-07T08:54:18;2.25;;;1.15;;
35324;SDS011;35135;47.510;19.036;2023-12-07T08:56:44;2.70;;;1.30;;
35324;SDS011;35135;47.510;19.036;2023-12-07T08:59:10;2.28;;;1.33;;
35324;SDS011;35135;47.510;19.036;2023-12-07T09:01:36;2.15;;;1.35;;
35324;SDS011;35135;47.510;19.036;2023-12-07T09:04:02;2.08;;;1.08;;
35324;SDS011;35135;47.510;19.036;2023-12-07T09:06:28;1.83;;;1.10;;
35324;SDS011;35135;47.510;19.036;2023-12-07T09:08:54;2.75;;;1.45;;
35324;SDS011;35135;47.510;19.036;2023-12-07T09:11:20;2.65;;;1.25;;
35324;SDS011;35135;47.510;19.036;2023-12-07T09:13:46;2.35;;;1.27;;
35324;SDS011;35135;47.510;19.036;2023-12-07T09:16:12;2.08;;;1.40;;
35324;SDS011;35135;47.510;19.036;2023-12-07T09:18:38;1.75;;;1.00;;
35324;SDS011;35135;47.510;19.036;2023-12-07T09:21:03;2.55;;;1.17;;
35324;SDS011;35135;47.510;19.036;2023-12-07T09:23:29;2.65;;;1.65;;
35324;SDS011;35135;47.510;19.036;2023-12-07T09:25:56;2.08;;;1.45;;
35324;SDS011;35135;47.510;19.036;2023-12-07T09:28:22;2.42;;;1.30;;
35324;SDS011;35135;47.510;19.036;2023-12-07T09:30:48;3.20;;;1.38;;
35324;SDS011;35135;47.510;19.036;2023-12-07T09:33:14;2.38;;;1.73;;
35324;SDS011;35135;47.510;19.036;2023-12-07T09:35:40;1.65;;;1.15;;
35324;SDS011;35135;47.510;19.036;2023-12-07T09:38:06;1.83;;;1.42;;
35324;SDS011;35135;47.510;19.036;2023-12-07T09:40:32;2.42;;;1.33;;
35324;SDS011;35135;47.510;19.036;2023-12-07T09:42:58;1.63;;;1.30;;
35324;SDS011;35135;47.510;19.036;2023-12-07T09:45:23;1.85;;;1.25;;
35324;SDS011;35135;47.510;19.036;2023-12-07T09:47:50;1.90;;;1.17;;
35324;SDS011;35135;47.510;19.036;2023-12-07T09:50:18;1.92;;;1.40;;
35324;SDS011;35135;47.510;19.036;2023-12-07T09:52:51;2.38;;;1.40;;
35324;SDS011;35135;47.510;19.036;2023-12-07T09:55:19;1.80;;;1.40;;
35324;SDS011;35135;47.510;19.036;2023-12-07T09:57:48;2.15;;;1.38;;
35324;SDS011;35135;47.510;19.036;2023-12-07T10:00:15;2.22;;;1.60;;
35324;SDS011;35135;47.510;19.036;2023-12-07T10:02:41;2.20;;;1.48;;
35324;SDS011;35135;47.510;19.036;2023-12-07T10:05:08;1.90;;;1.48;;
35324;SDS011;35135;47.510;19.036;2023-12-07T10:07:36;3.55;;;1.40;;
35324;SDS011;35135;47.510;19.036;2023-12-07T10:10:04;1.88;;;1.45;;
35324;SDS011;35135;47.510;19.036;2023-12-07T10:12:30;1.90;;;1.30;;
35324;SDS011;35135;47.510;19.036;2023-12-07T10:14:58;1.90;;;1.05;;
35324;SDS011;35135;47.510;19.036;2023-12-07T10:17:54;2.45;;;1.50;;
35324;SDS011;35135;47.510;19.036;2023-12-07T10:20:24;2.55;;;1.55;;
35324;SDS011;35135;47.510;19.036;2023-12-07T10:23:01;3.83;;;1.67;;
35324;SDS011;35135;47.510;19.036;2023-12-07T10:25:30;2.65;;;1.50;;
35324;SDS011;35135;47.510;19.036;2023-12-07T10:27:57;1.92;;;1.35;;
35324;SDS011;35135;47.510;19.036;2023-12-07T10:30:23;1.55;;;1.30;;
35324;SDS011;35135;47.510;19.036;2023-12-07T10:32:50;1.85;;;1.35;;
35324;SDS011;35135;47.510;19.036;2023-12-07T10:35:17;1.48;;;1.17;;
35324;SDS011;35135;47.510;19.036;2023-12-07T10:37:44;3.35;;;1.52;;
35324;SDS011;35135;47.510;19.036;2023-12-07T10:40:11;4.72;;;1.50;;
35324;SDS011;35135;47.510;19.036;2023-12-07T10:42:37;2.78;;;1.80;;
35324;SDS011;35135;47.510;19.036;2023-12-07T10:45:06;1.63;;;1.35;;
35324;SDS011;35135;47.510;19.036;2023-12-07T10:47:37;1.63;;;1.40;;
35324;SDS011;35135;47.510;19.036;2023-12-07T10:50:07;2.35;;;1.40;;
35324;SDS011;35135;47.510;19.036;2023-12-07T10:52:36;2.05;;;1.40;;
35324;SDS011;35135;47.510;19.036;2023-12-07T10:55:07;1.70;;;1.42;;
35324;SDS011;35135;47.510;19.036;2023-12-07T10:57:44;1.58;;;1.42;;
35324;SDS011;35135;47.510;19.036;2023-12-07T11:00:13;1.83;;;1.20;;
35324;SDS011;35135;47.510;19.036;2023-12-07T11:02:38;2.03;;;1.50;;
35324;SDS011;35135;47.510;19.036;2023-12-07T11:05:06;1.50;;;1.20;;
35324;SDS011;35135;47.510;19.036;2023-12-07T11:10:36;2.83;;;1.60;;
35324;SDS011;35135;47.510;19.036;2023-12-07T11:13:18;1.70;;;1.40;;
35324;SDS011;35135;47.510;19.036;2023-12-07T11:15:49;2.25;;;1.40;;
35324;SDS011;35135;47.510;19.036;2023-12-07T11:18:15;2.10;;;1.23;;
35324;SDS011;35135;47.510;19.036;2023-12-07T11:20:42;1.67;;;1.27;;
35324;SDS011;35135;47.510;19.036;2023-12-07T11:23:09;1.90;;;1.38;;
35324;SDS011;35135;47.510;19.036;2023-12-07T11:25:36;2.28;;;1.50;;
35324;SDS011;35135;47.510;19.036;2023-12-07T11:28:03;1.33;;;1.23;;
35324;SDS011;35135;47.510;19.036;2023-12-07T11:30:33;1.55;;;1.45;;
35324;SDS011;35135;47.510;19.036;2023-12-07T11:33:00;1.88;;;1.38;;
35324;SDS011;35135;47.510;19.036;2023-12-07T11:35:29;1.58;;;1.48;;
35324;SDS011;35135;47.510;19.036;2023-12-07T11:38:01;1.65;;;1.30;;
35324;SDS011;35135;47.510;19.036;2023-12-07T11:40:36;1.45;;;1.30;;
35324;SDS011;35135;47.510;19.036;2023-12-07T11:43:08;1.80;;;1.25;;
35324;SDS011;35135;47.510;19.036;2023-12-07T11:45:48;1.98;;;1.55;;
35324;SDS011;35135;47.510;19.036;2023-12-07T11:48:14;1.80;;;1.38;;
35324;SDS011;35135;47.510;19.036;2023-12-07T11:51:00;1.33;;;1.20;;
35324;SDS011;35135;47.510;19.036;2023-12-07T11:53:28;1.58;;;1.20;;
35324;SDS011;35135;47.510;19.036;2023-12-07T11:55:55;1.65;;;1.27;;
35324;SDS011;35135;47.510;19.036;2023-12-07T11:58:22;1.83;;;1.42;;
35324;SDS011;35135;47.510;19.036;2023-12-07T12:00:52;1.67;;;1.35;;
35324;SDS011;35135;47.510;19.036;2023-12-07T12:03:22;1.67;;;1.55;;
35324;SDS011;35135;47.510;19.036;2023-12-07T12:05:48;1.45;;;1.23;;
35324;SDS011;35135;47.510;19.036;2023-12-07T12:08:14;1.58;;;1.20;;
35324;SDS011;35135;47.510;19.036;2023-12-07T12:10:40;1.33;;;1.10;;
35324;SDS011;35135;47.510;19.036;2023-12-07T12:13:09;1.80;;;1.40;;
35324;SDS011;35135;47.510;19.036;2023-12-07T12:15:35;1.65;;;1.30;;
35324;SDS011;35135;47.510;19.036;2023-12-07T12:18:02;1.42;;;1.30;;
35324;SDS011;35135;47.510;19.036;2023-12-07T12:20:28;2.40;;;1.52;;
35324;SDS011;35135;47.510;19.036;2023-12-07T12:22:54;2.25;;;1.38;;
35324;SDS011;35135;47.510;19.036;2023-12-07T12:25:23;1.35;;;1.20;;
35324;SDS011;35135;47.510;19.036;2023-12-07T12:27:51;1.60;;;1.35;;
35324;SDS011;35135;47.510;19.036;2023-12-07T12:30:19;1.90;;;1.67;;
35324;SDS011;35135;47.510;19.036;2023-12-07T12:32:45;1.60;;;1.45;;
35324;SDS011;35135;47.510;19.036;2023-12-07T12:35:14;1.52;;;1.42;;
35324;SDS011;35135;47.510;19.036;2023-12-07T12:37:41;2.13;;;1.42;;
35324;SDS011;35135;47.510;19.036;2023-12-07T12:40:08;1.45;;;1.35;;
35324;SDS011;35135;47.510;19.036;2023-12-07T12:42:35;2.40;;;1.80;;
35324;SDS011;35135;47.510;19.036;2023-12-07T12:45:03;1.70;;;1.33;;
35324;SDS011;35135;47.510;19.036;2023-12-07T12:47:30;1.58;;;1.40;;
35324;SDS011;35135;47.510;19.036;2023-12-07T12:49:56;1.90;;;1.60;;
35324;SDS011;35135;47.510;19.036;2023-12-07T12:52:23;1.85;;;1.67;;
35324;SDS011;35135;47.510;19.036;2023-12-07T12:54:50;1.60;;;1.50;;
35324;SDS011;35135;47.510;19.036;2023-12-07T12:57:17;1.88;;;1.50;;
35324;SDS011;35135;47.510;19.036;2023-12-07T12:59:44;1.65;;;1.50;;
35324;SDS011;35135;47.510;19.036;2023-12-07T13:02:10;1.95;;;1.73;;
35324;SDS011;35135;47.510;19.036;2023-12-07T13:04:36;2.22;;;1.50;;
35324;SDS011;35135;47.510;19.036;2023-12-07T13:07:02;2.40;;;1.60;;
35324;SDS011;35135;47.510;19.036;2023-12-07T13:09:28;2.38;;;1.75;;
35324;SDS011;35135;47.510;19.036;2023-12-07T13:11:54;2.67;;;1.83;;
35324;SDS011;35135;47.510;19.036;2023-12-07T13:14:19;2.10;;;1.90;;
35324;SDS011;35135;47.510;19.036;2023-12-07T13:16:45;2.13;;;1.80;;
35324;SDS011;35135;47.510;19.036;2023-12-07T13:19:11;2.60;;;1.88;;
35324;SDS011;35135;47.510;19.036;2023-12-07T13:21:36;2.63;;;2.10;;
35324;SDS011;35135;47.510;19.036;2023-12-07T13:24:02;2.50;;;2.05;;
35324;SDS011;35135;47.510;19.036;2023-12-07T13:26:30;2.55;;;1.98;;
35324;SDS011;35135;47.510;19.036;2023-12-07T13:28:55;3.63;;;1.83;;
35324;SDS011;35135;47.510;19.036;2023-12-07T13:31:21;5.50;;;2.22;;
35324;SDS011;35135;47.510;19.036;2023-12-07T13:33:47;2.17;;;1.98;;
35324;SDS011;35135;47.510;19.036;2023-12-07T13:36:14;3.75;;;2.20;;
35324;SDS011;35135;47.510;19.036;2023-12-07T13:38:43;2.92;;;2.00;;
35324;SDS011;35135;47.510;19.036;2023-12-07T13:41:08;2.53;;;2.10;;
35324;SDS011;35135;47.510;19.036;2023-12-07T13:43:34;2.88;;;2.30;;
35324;SDS011;35135;47.510;19.036;2023-12-07T13:46:00;2.97;;;2.40;;
35324;SDS011;35135;47.510;19.036;2023-12-07T13:48:26;3.67;;;2.40;;
35324;SDS011;35135;47.510;19.036;2023-12-07T13:50:52;3.05;;;2.55;;
35324;SDS011;35135;47.510;19.036;2023-12-07T13:53:17;3.72;;;2.70;;
35324;SDS011;35135;47.510;19.036;2023-12-07T13:55:44;2.83;;;2.50;;
35324;SDS011;35135;47.510;19.036;2023-12-07T13:58:11;2.95;;;2.55;;
35324;SDS011;35135;47.510;19.036;2023-12-07T14:00:37;3.47;;;2.60;;
35324;SDS011;35135;47.510;19.036;2023-12-07T14:03:03;2.90;;;2.60;;
35324;SDS011;35135;47.510;19.036;2023-12-07T14:05:29;3.30;;;2.65;;
35324;SDS011;35135;47.510;19.036;2023-12-07T14:07:55;3.38;;;2.63;;
35324;SDS011;35135;47.510;19.036;2023-12-07T14:10:21;3.03;;;2.72;;
35324;SDS011;35135;47.510;19.036;2023-12-07T14:12:47;3.30;;;3.00;;
35324;SDS011;35135;47.510;19.036;2023-12-07T14:15:13;3.75;;;3.00;;
35324;SDS011;35135;47.510;19.036;2023-12-07T14:17:38;3.95;;;2.85;;
35324;SDS011;35135;47.510;19.036;2023-12-07T14:20:04;2.70;;;2.50;;
35324;SDS011;35135;47.510;19.036;2023-12-07T14:22:32;3.78;;;3.15;;
35324;SDS011;35135;47.510;19.036;2023-12-07T14:24:58;3.20;;;2.90;;
35324;SDS011;35135;47.510;19.036;2023-12-07T14:27:24;3.13;;;2.72;;
35324;SDS011;35135;47.510;19.036;2023-12-07T14:29:50;3.10;;;2.70;;
35324;SDS011;35135;47.510;19.036;2023-12-07T14:32:17;3.83;;;2.92;;
35324;SDS011;35135;47.510;19.036;2023-12-07T14:34:43;3.13;;;2.83;;